createdAt,value
2023-01-23T00:04:33.112Z,800.00
2023-01-23T00:09:35.382Z,800.00
2023-01-23T00:14:30.739Z,790.00
2023-01-23T00:19:28.769Z,779.00
2023-01-23T00:24:29.055Z,798.00
2023-01-23T00:29:29.335Z,829.00
2023-01-23T00:34:27.551Z,799.00
2023-01-23T00:39:26.997Z,805.00
2023-01-23T00:44:27.029Z,785.00
2023-01-23T00:49:27.208Z,778.00
2023-01-23T00:54:25.269Z,764.00
2023-01-23T00:59:23.968Z,748.00
2023-01-23T01:04:22.991Z,743.00
2023-01-23T01:09:21.236Z,739.00
2023-01-23T01:14:21.585Z,728.00
2023-01-23T01:19:22.022Z,719.00
2023-01-23T01:24:19.963Z,714.00
2023-01-23T01:29:19.106Z,709.00
2023-01-23T01:34:18.469Z,690.00
2023-01-23T01:39:18.597Z,688.00
2023-01-23T01:44:16.948Z,684.00
2023-01-23T01:49:16.089Z,679.00
2023-01-23T01:54:17.434Z,667.00
2023-01-23T01:59:14.761Z,666.00
2023-01-23T02:04:13.730Z,662.00
2023-01-23T02:09:12.946Z,660.00
2023-01-23T02:14:12.254Z,648.00
2023-01-23T02:19:11.500Z,659.00
2023-01-23T02:24:10.665Z,649.00
2023-01-23T02:29:09.801Z,635.00
2023-01-23T02:34:08.021Z,633.00
2023-01-23T02:39:08.174Z,637.00
2023-01-23T02:44:08.380Z,633.00
2023-01-23T02:49:06.635Z,627.00
2023-01-23T02:54:05.727Z,631.00
2023-01-23T02:59:05.072Z,632.00
2023-01-23T03:04:04.477Z,632.00
2023-01-23T03:09:04.687Z,621.00
2023-01-23T03:14:02.868Z,621.00
2023-01-23T03:19:02.017Z,624.00
2023-01-23T03:24:01.183Z,622.00
2023-01-23T03:29:02.391Z,616.00
2023-01-23T03:34:00.934Z,610.00
2023-01-23T03:38:59.025Z,619.00
2023-01-23T03:43:58.994Z,621.00
2023-01-23T03:48:56.147Z,622.00
2023-01-23T03:53:56.334Z,614.00
2023-01-23T03:58:55.706Z,615.00
2023-01-23T04:03:54.815Z,603.00
2023-01-23T04:08:52.970Z,607.00
2023-01-23T04:13:53.252Z,608.00
2023-01-23T04:18:52.395Z,602.00
2023-01-23T04:23:51.511Z,605.00
2023-01-23T04:28:50.710Z,599.00
2023-01-23T04:33:49.939Z,594.00
2023-01-23T04:38:49.149Z,601.00
2023-01-23T04:43:48.296Z,602.00
2023-01-23T04:48:48.826Z,604.00
2023-01-23T04:53:46.685Z,604.00
2023-01-23T04:58:46.092Z,600.00
2023-01-23T05:03:45.199Z,595.00
2023-01-23T05:08:44.384Z,599.00
2023-01-23T05:13:43.511Z,586.00
2023-01-23T05:18:42.889Z,594.00
2023-01-23T05:23:42.043Z,593.00
2023-01-23T05:28:41.183Z,587.00
2023-01-23T05:33:39.333Z,591.00
2023-01-23T05:38:39.669Z,590.00
2023-01-23T05:43:39.890Z,586.00
2023-01-23T05:48:38.234Z,583.00
2023-01-23T05:53:37.388Z,578.00
2023-01-23T05:58:36.732Z,574.00
2023-01-23T06:03:36.046Z,582.00
2023-01-23T06:08:37.189Z,580.00
2023-01-23T06:13:34.710Z,582.00
2023-01-23T06:18:32.941Z,582.00
2023-01-23T06:23:33.101Z,582.00
2023-01-23T06:28:32.249Z,585.00
2023-01-23T06:33:30.375Z,581.00
2023-01-23T06:38:30.712Z,577.00
2023-01-23T06:43:30.895Z,580.00
2023-01-23T06:48:29.008Z,579.00
2023-01-23T06:53:29.336Z,577.00
2023-01-23T06:58:28.513Z,576.00
2023-01-23T07:03:28.310Z,584.00
2023-01-23T07:08:25.826Z,581.00
2023-01-23T07:13:25.229Z,577.00
2023-01-23T07:18:23.372Z,577.00
2023-01-23T07:23:23.746Z,573.00
2023-01-23T07:28:22.941Z,571.00
2023-01-23T07:33:22.123Z,576.00
2023-01-23T07:38:22.238Z,580.00
2023-01-23T07:43:21.615Z,581.00
2023-01-23T07:48:19.744Z,576.00
2023-01-23T07:53:19.369Z,579.00
2023-01-23T07:58:19.306Z,579.00
2023-01-23T08:03:18.614Z,584.00
2023-01-23T08:08:17.977Z,592.00
2023-01-23T08:13:17.071Z,581.00
2023-01-23T08:18:16.412Z,569.00
2023-01-23T08:23:15.950Z,580.00
2023-01-23T08:28:14.902Z,627.00
2023-01-23T08:33:13.243Z,652.00
2023-01-23T08:38:14.580Z,621.00
2023-01-23T08:43:11.901Z,622.00
2023-01-23T08:48:11.115Z,620.00
2023-01-23T08:53:10.417Z,624.00
2023-01-23T08:58:09.858Z,612.00
2023-01-23T09:03:11.091Z,608.00
2023-01-23T09:08:07.942Z,605.00
2023-01-23T09:13:08.437Z,604.00
2023-01-23T09:18:06.588Z,608.00
2023-01-23T09:23:06.944Z,600.00
2023-01-23T09:28:05.069Z,596.00
2023-01-23T09:33:06.394Z,593.00
2023-01-23T09:38:03.672Z,587.00
2023-01-23T09:43:02.301Z,587.00
2023-01-23T09:48:02.182Z,583.00
2023-01-23T09:53:01.484Z,580.00
2023-01-23T09:58:02.854Z,586.00
2023-01-23T10:02:59.956Z,581.00
2023-01-23T10:07:59.278Z,579.00
2023-01-23T10:12:58.639Z,584.00
2023-01-23T10:18:00.166Z,575.00
2023-01-23T10:22:56.985Z,582.00
2023-01-23T10:27:57.252Z,581.00
2023-01-23T10:32:55.551Z,583.00
2023-01-23T10:37:55.838Z,579.00
2023-01-23T10:42:54.156Z,577.00
2023-01-23T10:47:55.432Z,574.00
2023-01-23T10:52:53.655Z,572.00
2023-01-23T10:57:52.962Z,573.00
2023-01-23T11:02:51.353Z,570.00
2023-01-23T11:07:50.490Z,580.00
2023-01-23T11:12:49.815Z,574.00
2023-01-23T11:17:48.162Z,572.00
2023-01-23T11:22:48.293Z,570.00
2023-01-23T11:27:47.634Z,572.00
2023-01-23T11:32:48.745Z,568.00
2023-01-23T11:37:45.053Z,565.00
2023-01-23T11:42:45.372Z,563.00
2023-01-23T11:47:45.688Z,560.00
2023-01-23T11:52:44.020Z,571.00
2023-01-23T11:57:44.361Z,556.00
2023-01-23T12:02:43.685Z,555.00
2023-01-23T12:07:41.807Z,557.00
2023-01-23T12:12:44.365Z,561.00
2023-01-23T12:17:41.244Z,555.00
2023-01-23T12:22:39.573Z,564.00
2023-01-23T12:27:39.883Z,562.00
2023-01-23T12:32:39.160Z,565.00
2023-01-23T12:37:39.477Z,569.00
2023-01-23T12:42:37.836Z,567.00
2023-01-23T12:47:35.465Z,566.00
2023-01-23T12:52:35.236Z,559.00
2023-01-23T12:57:46.027Z,568.00
2023-01-23T13:02:33.577Z,562.00
2023-01-23T13:07:32.672Z,561.00
2023-01-23T13:12:31.193Z,563.00
2023-01-23T13:17:31.339Z,564.00
2023-01-23T13:22:32.842Z,572.00
2023-01-23T13:27:30.953Z,574.00
2023-01-23T13:32:29.375Z,566.00
2023-01-23T13:37:28.602Z,561.00
2023-01-23T13:42:27.731Z,569.00
2023-01-23T13:47:29.047Z,566.00
2023-01-23T13:52:26.410Z,559.00
2023-01-23T13:57:26.005Z,561.00
2023-01-23T14:02:24.774Z,566.00
2023-01-23T14:07:26.148Z,567.00
2023-01-23T14:12:23.890Z,563.00
2023-01-23T14:17:23.623Z,558.00
2023-01-23T14:22:22.299Z,558.00
2023-01-23T14:27:21.948Z,555.00
2023-01-23T14:32:20.643Z,551.00
2023-01-23T14:37:19.809Z,549.00
2023-01-23T14:42:23.541Z,555.00
2023-01-23T14:47:18.256Z,554.00
2023-01-23T14:52:17.591Z,553.00
2023-01-23T14:57:16.725Z,550.00
2023-01-23T15:02:20.767Z,550.00
2023-01-23T15:07:15.245Z,557.00
2023-01-23T15:12:14.393Z,555.00
2023-01-23T15:17:13.759Z,559.00
2023-01-23T15:22:13.920Z,552.00
2023-01-23T15:27:12.255Z,555.00
2023-01-23T15:32:12.462Z,559.00
2023-01-23T15:37:11.857Z,554.00
2023-01-23T15:42:10.788Z,544.00
2023-01-23T15:47:09.114Z,556.00
2023-01-23T15:52:08.448Z,564.00
2023-01-23T15:57:09.139Z,565.00
2023-01-23T16:02:09.419Z,562.00
2023-01-23T16:07:06.035Z,569.00
2023-01-23T16:12:07.778Z,573.00
2023-01-23T16:17:16.484Z,575.00
2023-01-23T16:22:05.741Z,574.00
2023-01-23T16:27:03.162Z,583.00
2023-01-23T16:32:02.642Z,572.00
2023-01-23T16:37:00.646Z,578.00
2023-01-23T16:42:01.779Z,577.00
2023-01-23T16:47:00.118Z,583.00
2023-01-23T16:52:01.300Z,589.00
2023-01-23T16:56:59.508Z,589.00
2023-01-23T17:01:57.754Z,589.00
2023-01-23T17:06:58.186Z,591.00
2023-01-23T17:12:00.044Z,594.00
2023-01-23T17:16:55.466Z,594.00
2023-01-23T17:21:56.471Z,596.00
2023-01-23T17:26:55.155Z,596.00
2023-01-23T17:31:53.470Z,601.00
2023-01-23T17:36:53.624Z,600.00
2023-01-23T17:41:51.636Z,597.00
2023-01-23T17:46:51.050Z,599.00
2023-01-23T17:51:50.935Z,597.00
2023-01-23T17:56:51.247Z,594.00
2023-01-23T18:01:49.047Z,595.00
2023-01-23T18:06:47.856Z,597.00
2023-01-23T18:11:49.789Z,592.00
2023-01-23T18:16:46.263Z,598.00
2023-01-23T18:21:47.677Z,606.00
2023-01-23T18:26:46.023Z,603.00
2023-01-23T18:31:44.413Z,603.00
2023-01-23T18:36:44.650Z,596.00
2023-01-23T18:41:43.796Z,610.00
2023-01-23T18:46:42.122Z,611.00
2023-01-23T18:51:41.247Z,602.00
2023-01-23T18:56:41.359Z,613.00
2023-01-23T19:01:41.018Z,617.00
2023-01-23T19:06:38.029Z,609.00
2023-01-23T19:11:38.234Z,609.00
2023-01-23T19:16:38.673Z,601.00
2023-01-23T19:21:38.128Z,603.00
2023-01-23T19:26:36.026Z,600.00
2023-01-23T19:31:36.254Z,596.00
2023-01-23T19:36:34.632Z,640.00
2023-01-23T19:41:34.420Z,628.00
2023-01-23T19:46:32.800Z,627.00
2023-01-23T19:51:32.900Z,638.00
2023-01-23T19:56:31.321Z,666.00
2023-01-23T20:01:34.972Z,680.00
2023-01-23T20:06:29.741Z,710.00
2023-01-23T20:11:28.539Z,725.00
2023-01-23T20:16:30.055Z,739.00
2023-01-23T20:21:32.402Z,752.00
2023-01-23T20:26:27.755Z,771.00
2023-01-23T20:31:27.712Z,787.00
2023-01-23T20:36:26.073Z,779.00
2023-01-23T20:41:26.125Z,781.00
2023-01-23T20:46:22.350Z,798.00
2023-01-23T20:51:23.585Z,838.00
2023-01-23T20:56:22.146Z,833.00
2023-01-23T21:01:22.399Z,846.00
2023-01-23T21:06:20.696Z,848.00
2023-01-23T21:11:19.501Z,836.00
2023-01-23T21:16:19.018Z,861.00
2023-01-23T21:21:19.212Z,853.00
2023-01-23T21:26:18.431Z,859.00
2023-01-23T21:31:16.386Z,879.00
2023-01-23T21:36:15.605Z,896.00
2023-01-23T21:41:14.746Z,861.00
2023-01-23T21:46:16.759Z,903.00
2023-01-23T21:51:13.310Z,881.00
2023-01-23T21:56:14.199Z,899.00
2023-01-23T22:01:11.758Z,894.00
2023-01-23T22:06:11.886Z,889.00
2023-01-23T22:11:11.199Z,919.00
2023-01-23T22:16:09.624Z,883.00
2023-01-23T22:21:08.868Z,890.00
2023-01-23T22:26:08.198Z,938.00
2023-01-23T22:31:07.368Z,913.00
2023-01-23T22:36:06.536Z,906.00
2023-01-23T22:41:06.667Z,919.00
2023-01-23T22:46:04.865Z,900.00
2023-01-23T22:51:04.260Z,932.00
2023-01-23T22:56:04.823Z,919.00
2023-01-23T23:01:04.368Z,910.00
2023-01-23T23:06:02.648Z,921.00
2023-01-23T23:11:00.989Z,886.00
2023-01-23T23:16:01.181Z,927.00
2023-01-23T23:21:00.672Z,880.00
2023-01-23T23:25:58.695Z,840.00
2023-01-23T23:30:58.087Z,850.00
2023-01-23T23:35:58.325Z,830.00
2023-01-23T23:40:58.497Z,807.00
2023-01-23T23:45:57.880Z,796.00
2023-01-23T23:50:54.711Z,793.00
2023-01-23T23:55:54.921Z,767.00
